x

8447387 - Borden Flats Light At Fall River, Ma (bltm3) Weather Station

4:18 - Mon 29th May 2017 All times are EDT. -4 hours from GMT.

  • Wind
    14mph, 16mph gusts
  • Aire Temp 53°f
  • Sea Pressure 1016.3mb
  • 8447387 - Borden Flats Light At Fall River, Ma
  • 8447387 - Borden Flats Light At Fall River, Ma

More Historic Weather Station data

Upgrade to MSW Pro to gain access to the past 30 days of data for over 8000 Wavebouys and Weather Stations around the globe.

Join Pro

Comparision Forecast

View Surf forecast
   
lun 05/29 4:18 14 16 mph 1016.3mb 53f
4:12 15 17 mph 1016.3mb 53f
4:06 13 15 mph 1016.1mb 53f
4:00 11 14 mph 1016.1mb 53f
3:54 11 16 mph 1016mb 53f
3:48 13 14 mph 1016mb 53f
3:42 9 13 mph 1016mb 53f
3:36 9 13 mph 1015.9mb 53f
3:30 13 15 mph 1015.8mb 53f
3:24 14 17 mph 1015.9mb 53f
3:18 13 15 mph 1015.9mb 53f
3:12 14 18 mph 1015.7mb 53f
3:06 15 18 mph 1015.6mb 53f
3:00 17 21 mph 1015.5mb 54f
2:54 16 18 mph 1015.3mb 54f
2:48 14 17 mph 1015.3mb 54f
2:42 16 20 mph 1015.2mb 54f
2:36 14 20 mph 1015.2mb 54f
2:30 16 20 mph 1015.2mb 55f
2:24 14 18 mph 1015.2mb 55f
2:18 13 15 mph 1015.1mb 55f
2:12 15 18 mph 1015mb 55f
2:06 11 15 mph 1015.1mb 55f
2:00 10 13 mph 1015.2mb 55f
1:54 13 15 mph 1015.1mb 55f
1:48 13 15 mph 1015mb 55f
1:42 11 13 mph 1015mb 55f
1:36 10 14 mph 1015.1mb 55f
1:30 11 13 mph 1015mb 55f
1:24 10 14 mph 1014.9mb 55f
1:18 11 15 mph 1014.9mb 55f
1:12 10 14 mph 1014.9mb 55f
1:06 8 11 mph 1014.9mb 54f
1:00 14 18 mph 1014.8mb 54f
12:54 13 15 mph 1014.7mb 54f
12:48 14 16 mph 1014.6mb 54f
12:42 10 13 mph 1014.7mb 54f
12:36 14 16 mph 1014.8mb 53f
12:30 11 14 mph 1014.7mb 53f
12:24 11 15 mph 1014.5mb 53f
12:18 9 13 mph 1014.5mb 53f
12:12 13 15 mph 1014.4mb 53f
12:06 9 11 mph 1014.5mb 53f
12:00 11 15 mph 1014.3mb 53f
11:54 14 17 mph 1014.1mb 53f
11:48 11 15 mph 1014.4mb 53f
11:42 13 15 mph 1014.4mb 53f
11:36 13 15 mph 1014.4mb 53f
11:30 11 14 mph 1014.9mb 53f
11:24 8 11 mph 1015.1mb 52f
11:18 11 15 mph 1014.7mb 53f
11:12 11 16 mph 1014.3mb 53f
11:06 10 14 mph 1014.6mb 52f
11:00 11 14 mph 1014.8mb 52f
10:54 9 11 mph 1014.9mb 52f
10:48 7 9 mph 1014.7mb 52f
10:42 9 13 mph 1014.7mb 52f
10:36 8 11 mph 1014.6mb 52f
10:30 10 11 mph 1014.3mb 52f
10:24 10 14 mph 1014.2mb 52f
10:18 13 14 mph 1013.9mb 52f
10:12 11 14 mph 1013.8mb 52f
10:06 11 14 mph 1013.9mb 52f
10:00 10 13 mph 1014.1mb 52f
9:54 10 14 mph 1014.2mb 52f
9:48 9 14 mph 1014.3mb 52f
9:42 10 13 mph 1014.3mb 52f
9:36 7 11 mph 1014.4mb 52f
9:30 9 11 mph 1014.3mb 52f
9:24 10 14 mph 1014.2mb 52f
9:18 11 16 mph 1014.2mb 52f
9:12 9 13 mph 1014.3mb 52f
9:06 10 13 mph 1014.2mb 52f
9:00 9 10 mph 1014.2mb 52f
8:54 10 14 mph 1014.1mb 52f
8:48 10 11 mph 1014.1mb 53f
8:42 7 10 mph 1014.3mb 53f
8:36 9 14 mph 1014.3mb 53f
8:30 10 13 mph 1014.2mb 53f
8:24 9 11 mph 1014.4mb 53f
8:18 9 13 mph 1014.4mb 53f
8:12 8 11 mph 1014.6mb 53f
8:06 8 10 mph 1014.8mb 53f
8:00 7 9 mph 1014.9mb 53f
7:54 8 11 mph 1014.9mb 53f
7:48 9 13 mph 1014.8mb 53f
7:42 7 9 mph 1014.7mb 53f
7:36 9 11 mph 1014.5mb 53f
7:30 11 14 mph 1014.4mb 53f
7:24 9 11 mph 1014.4mb 53f
7:18 9 11 mph 1014.4mb 53f
7:12 9 13 mph 1014.3mb 53f
7:06 9 14 mph 1014.3mb 53f
7:00 8 10 mph 1014.4mb 53f
6:54 11 16 mph 1014.3mb 53f
6:48 9 14 mph 1014.3mb 53f
6:42 9 13 mph 1014.2mb 53f
6:36 11 15 mph 1014.3mb 53f
6:30 9 14 mph 1014.5mb 53f
6:24 9 13 mph 1014.6mb 53f
6:18 9 13 mph 1014.7mb 53f
6:12 8 14 mph 1014.5mb 53f
6:06 10 13 mph 1014.4mb 53f
6:00 11 17 mph 1014.4mb 53f
5:54 8 11 mph 1014.7mb 53f
5:48 9 13 mph 1014.5mb 53f
5:42 7 9 mph 1014.5mb 53f
5:36 7 11 mph 1014.4mb 53f
5:30 8 10 mph 1014.2mb 53f
5:24 10 13 mph 1014mb 53f
5:18 10 13 mph 1013.9mb 53f
5:12 9 10 mph 1014mb 53f
5:06 9 10 mph 1013.9mb 53f
5:00 8 10 mph 1013.8mb 53f
4:54 8 9 mph 1013.7mb 53f
4:48 7 8 mph 1013.7mb 53f
4:42 7 7 mph 1013.8mb 53f
4:36 7 8 mph 1013.8mb 53f
4:30 6 7 mph 1013.9mb 54f
4:24 6 7 mph 1013.8mb 54f
4:18 5 7 mph 1013.9mb 54f
4:12 6 7 mph 1013.8mb 54f
4:06 5 7 mph 1013.7mb 54f
4:00 5 8 mph 1013.7mb 54f
3:54 6 8 mph 1013.7mb 54f
3:48 7 9 mph - 54f
3:42 5 7 mph - 54f
3:36 6 8 mph - 54f
3:30 5 7 mph 1013.8mb 54f
3:24 6 9 mph 1013.8mb 54f
3:18 6 9 mph 1013.9mb 54f
3:12 5 7 mph 1014mb 54f
3:06 3 5 mph 1014mb 54f
3:00 5 7 mph 1014mb 54f
2:54 5 6 mph 1014.1mb 54f
2:48 5 7 mph 1014.2mb -
2:42 5 6 mph 1014.2mb -
2:36 3 6 mph 1014.2mb -
2:30 5 6 mph 1014.2mb 54f
2:24 2 3 mph 1014.3mb 54f
2:18 2 3 mph 1014.3mb 54f
2:12 3 6 mph 1014.2mb 54f
2:06 3 5 mph 1014.1mb 54f
2:00 2 3 mph 1014.1mb 54f
1:54 3 5 mph 1014.1mb 54f
1:48 2 5 mph 1014.1mb -
1:42 2 3 mph 1014.2mb -
1:36 2 3 mph 1014.2mb -
1:30 2 5 mph 1014.2mb 53f
1:24 1 5 mph 1014.2mb 53f
1:18 2 3 mph 1014.3mb 53f
1:12 3 6 mph 1014.3mb 53f
1:06 3 6 mph 1014.3mb 53f
1:00 6 8 mph 1014.3mb 53f
12:54 6 9 mph 1014.3mb 53f
12:48 7 10 mph 1014.2mb 54f
12:42 7 9 mph 1014.4mb 54f
12:36 7 8 mph 1014.5mb 54f
12:30 6 9 mph 1014.6mb 53f
12:24 6 8 mph 1014.6mb 53f
12:18 8 10 mph 1014.7mb 54f
12:12 6 7 mph 1014.7mb 53f
12:06 6 8 mph 1014.7mb 54f
12:00 7 8 mph 1014.7mb 53f
dom 05/28 11:54 6 8 mph 1014.7mb 54f
11:48 6 7 mph 1014.8mb 54f
11:42 5 6 mph 1014.8mb 54f
11:36 6 7 mph 1014.9mb 54f
11:30 6 8 mph 1014.8mb 54f
11:24 6 8 mph 1014.8mb 54f
11:18 6 7 mph 1015mb 54f
11:12 5 6 mph 1015mb 54f
11:06 6 8 mph 1015mb 54f
11:00 5 7 mph 1015.1mb 54f
10:54  -  2 mph 1015.2mb 54f
10:48 2 5 mph 1015.2mb 54f
10:42 5 6 mph 1015.2mb 54f
10:36 5 7 mph 1015.3mb 54f
10:30 6 9 mph 1015.2mb 54f
10:24 6 7 mph 1015.3mb 54f
10:18 6 9 mph 1015.3mb 54f
10:12 7 9 mph 1015.3mb 54f
10:06 6 8 mph 1015.3mb 55f
10:00 5 7 mph 1015.3mb 55f
9:54 6 8 mph 1015.4mb 55f
9:48 3 5 mph 1015.4mb 55f
9:42 5 7 mph 1015.4mb 55f
9:36 5 7 mph 1015.2mb 55f
9:30 6 9 mph 1015.2mb 55f
9:24 5 7 mph 1015.3mb 55f
9:18 6 8 mph 1015.4mb 55f
9:12 6 9 mph 1015.4mb 55f
9:06 6 8 mph 1015.4mb 55f
9:00 6 7 mph 1015.3mb 56f
8:48 6 7 mph 1015.2mb 56f
8:42 6 8 mph 1015.1mb 56f
8:36 6 7 mph 1015.1mb 56f
8:30 6 8 mph 1014.9mb 56f
8:24 6 9 mph 1014.9mb 56f
8:18 6 8 mph 1015.1mb 56f
8:12 7 9 mph 1015.1mb 56f
8:06 8 13 mph 1015.1mb 56f
8:00 8 11 mph 1015.2mb 56f
7:54 8 10 mph 1015.1mb 56f
7:48 9 13 mph 1015.1mb 57f
7:42 7 9 mph 1015.1mb 57f
7:36 7 9 mph 1015.1mb 57f
7:30 8 10 mph 1015.2mb 57f
7:24 10 13 mph 1015.1mb 58f
7:18 7 9 mph 1015.1mb 58f
7:12 9 10 mph 1015mb 58f
7:06 9 11 mph 1015mb 59f
7:00 7 9 mph 1014.9mb 59f
6:48 7 8 mph 1014.8mb 59f
6:42 8 10 mph 1014.9mb 60f
6:36 8 10 mph 1014.9mb 60f
6:30 7 9 mph 1014.7mb 60f
6:24 8 10 mph 1014.6mb 60f
6:18 8 10 mph 1014.5mb 61f
6:12 9 10 mph 1014.4mb 61f
6:06 8 11 mph 1014.5mb 61f
6:00 7 9 mph 1014.5mb 62f
5:54 10 14 mph 1014.5mb 62f
5:48 10 15 mph 1014.4mb 62f
5:42 9 10 mph 1014.3mb 62f
5:36 10 11 mph 1014.3mb 62f
5:30 10 13 mph 1014.4mb 62f
5:24 8 10 mph 1014.4mb 62f
5:18 9 13 mph 1014.4mb 61f
5:12 14 16 mph 1014.5mb 60f
5:06 9 13 mph 1014.6mb 62f
5:00 9 13 mph 1014.6mb 63f
4:54 11 14 mph 1014.5mb 63f
4:48 11 15 mph 1014.7mb 62f
4:42 14 16 mph 1014.8mb 61f
4:36 16 18 mph 1014.9mb 60f
4:30 17 18 mph 1014.7mb 60f
4:24 17 20 mph 1014.7mb 60f
4:18 15 17 mph 1014.6mb 60f
4:12 16 17 mph 1014.6mb 61f
4:06 14 18 mph 1014.6mb 62f
4:00 14 16 mph 1014.5mb 63f
3:54 13 15 mph 1014.5mb 62f
3:48 14 18 mph 1014.5mb 63f
3:42 15 17 mph 1014.6mb 63f
3:36 11 15 mph 1014.7mb 63f
3:30 13 17 mph 1014.8mb 63f
3:24 14 18 mph 1014.7mb 63f
3:18 13 17 mph 1014.7mb 63f
3:12 14 17 mph 1014.7mb 63f
3:06 14 18 mph 1014.8mb 63f
3:00 14 20 mph 1014.8mb 63f
2:54 15 18 mph 1014.9mb 63f
2:48 13 15 mph 1014.9mb 63f
2:42 14 17 mph 1014.9mb 63f
2:36 16 18 mph 1014.9mb 63f
2:30 14 20 mph 1015mb 63f
2:24 11 15 mph 1015.1mb 63f
2:18 11 16 mph 1015.1mb 64f
2:12 14 16 mph 1015mb 63f
2:06 11 15 mph 1015.1mb 64f
2:00 14 20 mph 1015mb 64f
1:54 14 20 mph 1014.9mb 64f
1:48 13 18 mph 1014.8mb 64f
1:42 15 21 mph 1014.9mb 64f
1:36 14 18 mph 1015mb 64f
1:30 14 17 mph 1014.8mb 64f
1:24 11 17 mph 1014.7mb 64f
1:18 10 15 mph 1014.7mb 64f
1:12 13 16 mph 1014.6mb 64f
1:06 13 16 mph 1014.5mb 64f
1:00 11 15 mph 1014.4mb 64f
12:54 14 16 mph 1014.4mb 63f
12:48 11 15 mph 1014.5mb 63f
12:42 13 17 mph 1014.4mb 63f
12:36 10 14 mph 1014.3mb 63f
12:30 10 15 mph 1014.3mb 63f
12:24 14 15 mph 1014.3mb 62f
12:18 13 15 mph 1014.3mb 62f
12:12 11 13 mph 1014.2mb 63f
12:06 9 11 mph 1014.1mb 62f
12:00 10 15 mph 1014mb 63f
11:54 10 13 mph 1014.1mb 62f
11:48 11 13 mph 1014.2mb 62f
11:42 13 14 mph 1014.1mb 62f
11:36 13 14 mph 1014mb 61f
11:30 9 14 mph 1014.1mb 62f
11:24 7 10 mph 1014.1mb 62f
11:18 10 15 mph 1013.9mb 61f
11:12 8 9 mph 1013.8mb 61f
11:06 13 14 mph 1013.9mb 60f
11:00 14 14 mph 1014mb 60f
10:54 13 14 mph 1013.9mb 60f
10:48 11 14 mph 1013.8mb 60f
10:42 11 13 mph 1013.9mb 60f
10:36 10 10 mph 1013.8mb 60f
10:30 9 10 mph 1013.8mb 60f
10:24 8 10 mph 1013.9mb 59f
10:18 7 8 mph 1013.9mb 59f
10:12 9 10 mph 1013.9mb 59f
10:06 9 11 mph 1013.9mb 59f
10:00 8 9 mph 1014mb 59f
9:54 6 8 mph 1014.3mb 59f
9:48 8 9 mph 1014.2mb 59f
9:42 9 13 mph 1014.2mb 59f
9:36 9 10 mph 1014.3mb 58f
9:30 8 10 mph 1014.4mb 59f
9:24 7 9 mph 1014.3mb 59f
9:18 5 7 mph 1014.3mb 59f
9:12 5 6 mph 1014.2mb 58f
9:06 3 5 mph 1014.2mb 58f
9:00 6 6 mph 1014.2mb 58f
8:54 3 6 mph 1014.3mb 58f
8:48 6 7 mph 1014.4mb 58f
8:42 6 7 mph 1014.4mb 58f
8:36 6 8 mph 1014.4mb 58f
8:30 6 8 mph 1014.4mb 58f
8:24 6 9 mph 1014.3mb 58f
8:18 6 7 mph 1014.4mb 58f
8:12 8 9 mph 1014.4mb 58f
8:06 7 9 mph 1014.4mb 57f
8:00 7 8 mph 1014.2mb 57f
7:54 8 10 mph 1014.2mb 57f
7:48 8 10 mph 1014.3mb 57f
7:42 9 10 mph 1014.3mb 57f
7:36 10 11 mph 1014.3mb 57f
7:30 10 13 mph 1014.3mb 57f
7:24 11 13 mph 1014.1mb 57f
7:18 11 13 mph 1014mb 57f
7:12 10 14 mph 1013.9mb 57f
7:06 10 13 mph 1013.8mb 56f
7:00 8 10 mph 1013.8mb 56f
6:54 7 9 mph 1013.6mb 56f
6:48 5 6 mph 1013.5mb 56f
6:42 6 8 mph 1013.3mb 56f
6:36 6 8 mph 1013.3mb 56f
6:30 8 10 mph 1013.1mb 56f
6:24 6 8 mph 1013.1mb 56f
6:18 6 8 mph 1013.1mb 56f
6:12 7 9 mph 1013mb 56f
6:06 7 9 mph 1012.8mb 56f
6:00 6 7 mph 1012.6mb 56f
5:54 3 7 mph 1012.6mb 56f
5:48 6 7 mph 1012.4mb 56f
5:42 5 6 mph 1012.4mb 56f
5:36 6 7 mph 1012.2mb 56f
5:30 7 9 mph 1012mb 56f
5:24 9 14 mph 1011.9mb 56f
5:18 9 14 mph 1012.1mb 56f
5:12 7 9 mph 1012.1mb 56f
5:06 7 9 mph 1012.2mb 56f
5:00 8 11 mph 1012.5mb 56f
4:54 7 10 mph 1012.6mb 56f
4:48 9 14 mph 1012.5mb 56f
4:42 8 13 mph 1012.3mb 56f
4:36 10 14 mph 1012.3mb 56f
4:30 9 13 mph 1012.4mb 55f
4:24 10 14 mph 1012.4mb 55f
4:18 8 11 mph 1012.4mb 55f
4:12 8 11 mph 1012.4mb 55f
4:06 6 9 mph 1012.5mb 55f
4:00 6 8 mph 1012.8mb 56f
3:54 7 9 mph 1013mb 56f
3:48 7 9 mph 1012.8mb 55f
3:42 8 10 mph 1012.7mb 55f
3:36 7 9 mph 1012.7mb 55f
3:30 8 13 mph 1012.5mb 55f
3:24 7 9 mph 1012.4mb 55f
3:18 7 9 mph 1012.4mb 55f
3:12 8 11 mph 1012.4mb 55f
3:06 7 10 mph 1012.4mb 55f
3:00 6 8 mph 1012.3mb 55f
2:54 7 13 mph 1012.2mb 55f
2:48 7 10 mph 1012.3mb 55f
2:42 7 9 mph 1012.4mb 55f
2:36 5 7 mph 1012.4mb 55f
2:30 3 5 mph 1012.6mb 55f
2:24 6 9 mph 1012.5mb 55f
2:18 5 7 mph 1012.6mb 55f
2:12 7 9 mph 1012.8mb 55f
2:06 8 14 mph 1012.8mb 55f
2:00 10 13 mph 1012.7mb 55f
1:54 11 14 mph 1012.6mb 55f
1:48 11 15 mph 1012.6mb 55f
1:42 13 15 mph 1012.6mb 56f
1:36 10 13 mph 1012.7mb 56f
1:30 11 15 mph 1012.5mb 56f
1:24 11 14 mph 1012.7mb 56f
1:18 11 14 mph 1012.8mb 56f
1:12 10 14 mph 1012.9mb 56f
1:06 9 11 mph 1012.9mb 56f
1:00 9 13 mph 1013mb 56f
12:54 10 13 mph 1013.1mb 56f
12:48 11 15 mph 1013.1mb 56f
12:42 10 15 mph 1013.1mb 56f
12:36 11 15 mph 1013.2mb 56f
12:30 11 14 mph 1013.2mb 56f
12:24 13 15 mph 1013.2mb 56f
12:18 9 13 mph 1013.2mb 56f
12:12 7 10 mph 1013.2mb 56f
12:06 7 11 mph 1013.2mb 56f
12:00 7 9 mph 1013.3mb 56f
sáb 05/27 11:54 8 11 mph 1013.2mb 56f
11:48 5 6 mph 1013.2mb 56f
11:42 6 8 mph 1013.2mb 57f
11:36 6 8 mph 1013.2mb 57f
11:30 7 9 mph 1013.2mb 57f
11:24 7 9 mph 1013.1mb 57f
11:18 9 13 mph 1013mb 57f
11:12 7 9 mph 1012.9mb 57f
11:06 6 8 mph 1013mb 57f
11:00 8 11 mph 1012.8mb 57f
10:54 10 14 mph 1012.7mb 57f
10:48 10 13 mph 1012.9mb 57f
10:42 10 13 mph 1012.8mb 57f
10:36 6 8 mph 1013mb 58f
10:30 7 9 mph 1013mb 58f
10:24 7 9 mph 1013mb 58f
10:18 8 11 mph 1012.8mb 58f
10:12 7 8 mph 1012.9mb 58f
10:06 8 10 mph 1012.9mb 58f
10:00 7 9 mph 1012.8mb 58f
9:54 9 11 mph 1012.7mb 59f
9:48 8 10 mph 1012.7mb 59f
9:42 8 9 mph 1012.7mb 59f
9:36 7 9 mph 1012.7mb 59f
9:30 9 13 mph 1012.5mb 59f
9:24 8 10 mph 1012.5mb 59f
9:18 8 11 mph 1012.5mb 59f
9:12 6 8 mph 1012.5mb 60f
9:06 8 10 mph 1012.4mb 60f
9:00 8 10 mph 1012.2mb 60f
8:54 9 14 mph 1012.3mb 60f
8:48 9 13 mph 1012.2mb 60f
8:42 8 13 mph 1012.2mb 60f
8:36 7 10 mph 1012.1mb 60f
8:30 9 13 mph 1012mb 60f
8:24 7 10 mph 1012mb 60f
8:18 7 9 mph 1012mb 60f
8:12 5 7 mph 1012mb 60f
8:06 6 9 mph 1012mb 61f
8:00 6 7 mph 1011.9mb 61f
7:54 6 9 mph 1011.8mb 61f
7:48 6 8 mph 1011.7mb 61f
7:42 7 8 mph 1011.7mb 61f
7:36 8 10 mph 1011.7mb 61f
7:30 7 10 mph 1011.6mb 61f
7:24 9 13 mph 1011.6mb 62f
7:18 10 14 mph 1011.5mb 62f
7:12 11 14 mph 1011.4mb 62f
7:06 9 11 mph 1011.4mb 62f
7:00 10 14 mph 1011.2mb 62f
6:54 10 14 mph 1011.2mb 62f
6:48 10 14 mph 1011.2mb 62f
6:42 11 15 mph 1011.1mb 62f
6:36 9 11 mph 1011.1mb 62f
6:30 9 11 mph 1011mb 62f
6:24 9 11 mph 1011.1mb 62f
6:18 10 13 mph 1011mb 62f
6:12 11 14 mph 1011mb 62f
6:06 10 15 mph 1010.9mb 63f
6:00 7 9 mph 1010.9mb 63f
5:54 10 11 mph 1010.8mb 63f
5:48 10 14 mph 1010.8mb 63f
5:42 10 13 mph 1010.8mb 63f
5:36 11 14 mph 1010.9mb 63f
5:30 10 13 mph 1010.8mb 63f
5:24 10 13 mph 1010.9mb 64f
5:18 10 13 mph 1011mb 64f
5:12 10 13 mph 1011mb 64f
5:06 10 14 mph 1010.8mb 64f
5:00 9 13 mph 1010.8mb 65f
4:54 9 10 mph 1010.8mb 65f
4:48 11 13 mph 1010.8mb 65f
4:42 8 10 mph 1010.8mb 65f
4:36 8 10 mph 1010.8mb 65f
4:30 8 10 mph 1010.8mb 63f
4:24 11 13 mph 1010.8mb 63f
4:18 8 10 mph 1010.8mb 63f
4:12 10 13 mph 1010.7mb 64f
4:06 7 11 mph 1010.6mb 65f
4:00 8 10 mph 1010.6mb 64f
3:54 10 11 mph 1010.6mb 63f
3:48 8 9 mph 1010.6mb 63f
3:42 8 9 mph 1010.6mb 63f
3:36 7 7 mph 1010.6mb 63f
3:30 6 7 mph 1010.5mb 63f
3:24 6 7 mph 1010.6mb 63f
3:18 7 8 mph 1010.5mb 63f
3:12 8 9 mph 1010.6mb 63f
3:06 8 9 mph 1010.6mb 62f
3:00 10 11 mph 1010.5mb 62f
2:54 10 10 mph 1010.5mb 62f
2:48 9 9 mph 1010.5mb 62f
2:42 9 10 mph 1010.5mb 62f
2:36 8 9 mph 1010.5mb 61f
2:30 9 10 mph 1010.5mb 61f
2:24 9 11 mph 1010.6mb 61f
2:18 8 9 mph 1010.6mb 61f
2:12 8 8 mph 1010.5mb 61f
2:06 8 9 mph 1010.5mb 61f
2:00 7 8 mph 1010.5mb 60f
1:54 7 8 mph 1010.5mb 60f
1:48 8 8 mph 1010.5mb 60f
1:42 8 9 mph 1010.5mb 60f
1:36 9 10 mph 1010.6mb 60f
1:30 10 10 mph 1010.6mb 60f
1:24 9 9 mph 1010.6mb 60f
1:18 7 8 mph 1010.6mb 60f
1:12 6 6 mph 1010.6mb 60f
1:06 5 5 mph 1010.6mb 60f
1:00 3 5 mph 1010.5mb 60f
12:54 5 6 mph 1010.6mb 60f
12:48 5 6 mph 1010.6mb 60f
12:42 6 7 mph 1010.5mb 60f
12:36 5 5 mph 1010.5mb 60f
12:30 3 5 mph 1010.5mb 59f
12:24 5 6 mph 1010.5mb 59f
12:18 5 6 mph 1010.5mb 59f
12:12 3 6 mph 1010.4mb 59f
12:06 7 8 mph 1010.4mb 59f
12:00 6 6 mph 1010.4mb 60f
11:54 3 5 mph 1010.4mb 60f
11:48 2 5 mph 1010.3mb 60f
11:42  -  2 mph 1010.2mb 61f
11:36 5 6 mph 1010.3mb 61f
11:30 6 9 mph 1010.3mb 61f
11:24 2 5 mph 1010.3mb 61f
11:18 3 6 mph 1010.2mb 62f
11:12 2 5 mph 1010.1mb 62f
11:06 2 3 mph 1010.2mb 62f
11:00 5 6 mph 1010.2mb 61f
10:54 5 6 mph 1010.3mb 60f
10:48 6 7 mph 1010.4mb 60f
10:42 5 7 mph 1010.4mb 59f
10:36 5 7 mph 1010.4mb 59f
10:30 6 8 mph 1010.4mb 59f
10:24 5 7 mph 1010.5mb 58f
10:18 6 7 mph 1010.5mb 58f
10:12 6 7 mph 1010.5mb 59f
10:06 5 6 mph 1010.5mb 58f
10:00 6 8 mph 1010.5mb 58f
9:54 7 9 mph 1010.5mb 58f
9:48 6 7 mph 1010.3mb 58f
9:42 7 9 mph 1010.3mb 58f
9:36 8 10 mph 1010.3mb 58f
9:30 8 10 mph 1010.2mb 58f
9:24 7 9 mph 1010.1mb 58f
9:18 6 8 mph 1010.1mb 58f
9:12 7 9 mph 1010.1mb 57f
9:06 9 10 mph 1010mb 57f
9:00 10 13 mph 1010mb 57f
8:54 9 11 mph 1010mb 57f
8:48 8 13 mph 1009.9mb 57f
8:42 9 13 mph 1009.7mb 57f
8:36 8 13 mph 1009.6mb 57f
8:30 6 9 mph 1009.6mb 57f
8:24 8 10 mph 1009.5mb 57f
8:18 8 10 mph 1009.5mb 57f
8:12 7 10 mph 1009.5mb 57f
8:06 5 6 mph 1009.5mb 56f
8:00 6 9 mph 1009.4mb 56f
7:54 6 7 mph 1009.4mb 56f
7:48 6 7 mph 1009.3mb 56f
7:42 5 6 mph 1009.4mb 56f
7:36 7 8 mph 1009.4mb 55f
7:30 6 8 mph 1009.3mb 55f
7:24 6 8 mph 1009.2mb 55f
7:18 5 6 mph 1009.2mb 55f
7:12 5 6 mph 1009.1mb 55f
7:06 3 5 mph 1009.1mb 55f
7:00 6 7 mph 1009mb 55f
6:54 8 10 mph 1009.1mb 55f
6:48 7 9 mph 1009mb 55f
6:42 7 9 mph 1009mb 54f
6:36 6 7 mph 1009mb 54f
6:30 6 7 mph 1008.9mb 54f
6:24 6 7 mph 1008.9mb 54f
6:18 6 7 mph 1008.8mb 54f
6:12 6 8 mph 1008.7mb 54f
6:06 7 8 mph 1008.5mb 54f
6:00 6 8 mph 1008.5mb 54f
5:54 7 8 mph 1008.5mb 54f
5:48 6 7 mph 1008.4mb 54f
5:42 6 7 mph 1008.4mb 54f
5:36 3 5 mph 1008.4mb 54f
5:30 3 5 mph 1008.3mb 54f
5:24 3 5 mph 1008.3mb 54f
5:18 3 5 mph 1008.3mb 54f
5:12 3 6 mph 1008.2mb 54f
5:06 3 5 mph 1008.2mb 54f
5:00 3 5 mph 1008.2mb 54f
4:54 3 5 mph 1008.1mb 54f
4:48 3 5 mph 1008.2mb 54f
4:42 3 5 mph 1008.2mb 54f
4:36 5 6 mph 1008.1mb 54f
4:30 6 6 mph 1008.1mb 54f
4:24 6 6 mph 1008.1mb 54f
4:18 6 7 mph 1008mb 54f
4:12 7 8 mph 1007.9mb 54f
4:06 5 8 mph 1007.9mb 54f
4:00 5 6 mph 1007.9mb 55f
3:54 6 6 mph 1007.8mb 55f
3:48 6 6 mph 1007.7mb 55f
3:42 6 7 mph 1007.6mb 55f
3:36 7 7 mph 1007.6mb 55f
3:30 5 6 mph 1007.6mb 55f
3:24 3 3 mph 1007.5mb 55f
3:18 2 3 mph 1007.5mb 54f
3:12 2 2 mph 1007.4mb 54f
3:06  -  1 mph 1007.4mb 54f
3:00  -  2 mph 1007.3mb 54f
2:54 2 2 mph 1007.3mb 54f
2:48 2 3 mph - -
2:42 1 3 mph - -
2:36  -  2 mph - -
2:30 2 3 mph 1007mb 54f
2:24 1 2 mph 1007.1mb 55f
2:18 2 3 mph 1007.1mb 54f
2:12 5 6 mph 1007mb 54f
2:06 3 5 mph 1007.1mb 54f
2:00 3 5 mph 1007.2mb 54f
1:54 3 5 mph 1007.1mb 54f
1:48 2 2 mph 1007mb 54f
1:42 2 3 mph 1007mb 54f
1:36 3 3 mph 1006.9mb 54f
1:30 3 5 mph 1006.9mb 55f
1:24 5 6 mph 1006.9mb 55f
1:18 6 7 mph 1006.8mb 55f
1:12 7 8 mph 1006.9mb 55f
1:06 7 8 mph 1006.8mb 55f
1:00 6 7 mph 1006.8mb 55f
12:54 5 7 mph 1006.7mb 55f
12:48 8 9 mph 1006.7mb 55f
12:42 8 9 mph 1006.6mb 55f
12:36 8 9 mph 1006.5mb 55f
12:30 9 10 mph 1006.5mb 55f
12:24 8 10 mph 1006.4mb 55f
12:18 8 9 mph 1006.4mb 55f
12:12 9 10 mph 1006.3mb 55f
12:06 9 11 mph 1006.3mb 56f
12:00 9 10 mph 1006.3mb 56f
vie 05/26 11:54 10 13 mph 1006.2mb 56f
11:48 14 16 mph 1006.1mb 56f
11:42 13 15 mph 1006.1mb 57f
11:36 11 15 mph 1006mb 58f
11:30 9 15 mph 1005.8mb 58f
11:24 9 11 mph 1005.7mb 58f
11:18 9 11 mph 1005.5mb 58f
11:12 9 13 mph 1005.4mb 58f
11:06 8 10 mph 1005.3mb 58f
11:00 8 11 mph 1005.1mb 58f
10:54 9 11 mph 1005.2mb 58f
10:48 8 10 mph 1005.2mb 58f
10:42 5 6 mph 1005.1mb 58f
10:36 6 7 mph 1005.1mb 58f
10:30 7 8 mph 1005.1mb 58f
10:24 8 9 mph 1005.1mb 58f
10:18 8 8 mph 1005.1mb 58f
10:12 6 7 mph 1005.1mb 58f
10:06 7 8 mph 1005.2mb 58f
10:00 9 9 mph 1005.2mb 58f
9:54 9 9 mph 1005.1mb 58f
9:48 9 9 mph 1005mb 58f
9:42 8 8 mph 1004.9mb 58f
9:36 7 8 mph 1004.8mb 58f
9:30 6 7 mph 1004.7mb 58f
9:24 6 7 mph 1004.6mb 58f
9:18 6 7 mph 1004.6mb 58f
9:12 6 7 mph 1004.5mb 58f
9:06 6 6 mph 1004.4mb 58f
9:00 6 6 mph 1004.2mb 58f
8:54 6 6 mph 1004.1mb 58f
8:48 5 5 mph 1004mb 58f
8:42 3 3 mph 1004mb 58f
8:36 3 3 mph 1003.9mb 58f
8:30 2 3 mph 1003.9mb 58f
8:24 3 5 mph 1003.8mb 58f
8:18 5 6 mph 1003.8mb 58f
8:12 6 6 mph 1003.7mb 58f
8:06 6 6 mph 1003.7mb 58f
8:00 5 6 mph 1003.6mb 58f
7:54 3 3 mph 1003.5mb 58f
7:48 3 5 mph 1003.5mb 58f
7:42 5 6 mph 1003.3mb 58f
7:36 6 7 mph 1003.2mb 58f
7:30 7 7 mph 1003.2mb 58f
7:24 6 7 mph 1003.1mb 58f
7:18 6 6 mph 1003.1mb 58f
7:12 5 6 mph 1003mb 58f
7:06 6 6 mph 1002.9mb 58f
7:00 5 5 mph 1002.9mb 58f
6:54 5 5 mph 1002.8mb 58f
6:48 5 5 mph 1002.7mb 58f
6:42 5 6 mph 1002.6mb 58f
6:36 5 5 mph 1002.6mb 58f
6:30 5 6 mph 1002.5mb 58f
6:24 6 6 mph 1002.5mb 58f
6:18 6 6 mph 1002.5mb 57f
6:12 7 7 mph 1002.4mb 57f
6:06 7 7 mph 1002.3mb 57f
6:00 7 8 mph 1002.1mb 57f
5:54 7 8 mph 1002.1mb 57f
5:48 7 8 mph 1002mb 57f
5:42 7 8 mph 1002mb 57f
5:36 8 9 mph 1001.9mb 57f
5:30 9 9 mph 1001.9mb 57f
5:24 8 9 mph 1001.9mb 57f
5:18 7 8 mph 1001.8mb 57f
5:12 7 7 mph 1001.7mb 57f
5:06 6 6 mph 1001.7mb 57f
5:00 6 6 mph 1001.7mb 57f
4:54 6 6 mph 1001.7mb 57f
4:48 6 6 mph 1001.7mb 57f
4:42 6 7 mph 1001.6mb 57f
4:36 6 6 mph 1001.5mb 57f
4:30 6 7 mph 1001.5mb 57f
4:24 7 7 mph 1001.5mb 56f
4:18 6 7 mph 1001.4mb 57f
4:12 7 9 mph 1001.4mb 57f
4:06 9 10 mph 1001.4mb 56f
4:00 9 10 mph 1001.4mb 56f
3:54 8 9 mph 1001.3mb 56f
3:48 8 9 mph 1001.3mb 56f
3:42 8 9 mph 1001.3mb 57f
3:36 9 11 mph 1001.3mb 56f
3:30 9 11 mph 1001.3mb 56f
3:24 9 11 mph 1001.2mb 56f
3:18 9 11 mph 1001.1mb 56f
3:12 9 10 mph 1001.1mb 56f
3:06 10 11 mph 1001mb 56f
3:00 9 11 mph 1000.9mb 56f
2:54 10 13 mph 1000.9mb 56f
2:48 10 13 mph 1000.9mb 56f
2:42 9 11 mph 1000.9mb 56f
2:36 10 13 mph 1000.9mb 56f
2:30 10 11 mph 1000.9mb 55f
2:24 10 13 mph 1000.8mb 56f
2:18 11 14 mph 1000.8mb 55f
2:12 11 15 mph 1000.8mb 55f
2:06 14 16 mph 1000.8mb 55f
2:00 14 17 mph 1000.7mb 55f
1:54 13 14 mph 1000.6mb 55f
1:48 14 15 mph 1000.6mb 55f
1:42 13 16 mph 1000.5mb 55f
1:36 11 14 mph 1000.4mb 55f
1:30 11 14 mph 1000.3mb 55f
1:24 10 13 mph 1000.1mb 55f
1:18 10 13 mph 1000mb 54f
1:12 9 11 mph 1000mb 55f
1:06 10 13 mph 999.9mb 54f
1:00 7 10 mph 999.7mb 54f
12:54 11 16 mph 999.7mb 54f
12:48 11 15 mph 999.6mb 54f
12:42 10 14 mph 999.6mb 54f
12:36 10 11 mph 999.6mb 54f
12:30 10 13 mph 999.5mb 54f
12:24 15 18 mph 999.5mb 54f
12:18 9 14 mph 999.4mb 54f
12:12 9 13 mph 999.3mb 54f
12:06 9 14 mph 999.3mb 54f
12:00 10 15 mph 999.2mb 54f
11:54 10 13 mph 999.2mb 54f
11:48 13 16 mph 999.2mb 53f
11:42 14 16 mph 999.1mb 53f
11:36 15 18 mph 999mb 53f
11:30 13 16 mph 998.9mb 53f
11:24 15 21 mph 998.8mb 53f
11:18 14 17 mph 998.8mb 53f
11:12 14 17 mph 998.6mb 53f
11:06 14 18 mph 998.6mb 53f
11:00 17 22 mph 998.5mb 53f
10:54 17 24 mph 998.4mb 53f
10:48 13 16 mph 998.3mb 53f
10:42 17 22 mph 998.2mb 52f
10:36 14 18 mph 998.1mb 52f
10:30 16 21 mph 998mb 52f
10:24 14 16 mph 997.9mb 52f
10:18 14 18 mph 997.8mb 52f
10:12 14 18 mph 997.7mb 52f
10:06 15 21 mph 997.6mb 52f
10:00 15 18 mph 997.5mb 52f
9:54 14 18 mph 997.4mb 52f
9:48 10 15 mph 997.5mb 52f
9:42 9 13 mph 997.4mb 52f
9:36 10 15 mph 997.3mb 52f
9:30 10 13 mph 997.3mb 52f
9:24 10 13 mph 997.2mb 52f
9:18 10 13 mph 997.2mb 52f
9:12 9 11 mph 997.2mb 52f
9:06 8 11 mph 997.2mb 52f
9:00 10 14 mph 997.2mb 52f
8:54 10 14 mph 997.1mb 52f
8:48 13 16 mph 997mb 52f
8:42 11 14 mph 997mb 52f
8:36 10 15 mph 997mb 52f
8:30 9 13 mph 996.9mb 52f
8:24 9 14 mph 996.9mb 53f
8:18 8 11 mph 996.7mb 52f
8:12 9 11 mph 996.6mb 52f
8:06 9 11 mph 996.6mb 52f
8:00 8 9 mph 996.6mb 52f
7:54 9 13 mph 996.5mb 52f
7:48 7 8 mph 996.5mb 52f
7:42 10 13 mph 996.5mb 52f
7:36 7 10 mph 996.6mb 52f
7:30 7 9 mph 996.6mb 52f
7:24 7 10 mph 996.6mb 52f
7:18 8 10 mph 996.7mb 52f
7:12 8 9 mph 996.7mb 52f
7:06 7 9 mph 996.8mb 52f
7:00 5 7 mph 996.9mb 52f
6:54 8 9 mph 996.9mb 52f
6:48 9 11 mph 996.7mb 53f
6:42 9 11 mph 996.7mb 52f
6:36 7 9 mph 996.8mb 52f
6:30 9 11 mph 996.8mb 52f
6:24 9 13 mph 996.8mb 52f
6:18 9 11 mph 996.8mb 52f
6:12 9 10 mph 996.8mb 52f
6:06 8 10 mph 996.7mb 53f
6:00 10 11 mph 996.7mb 52f
5:54 10 14 mph 996.8mb 52f
5:48 9 13 mph 996.9mb 52f
5:42 10 13 mph 997mb 52f
5:36 7 10 mph 997.1mb 52f
5:30 9 13 mph 996.9mb 52f
5:24 14 17 mph 996.8mb 52f
5:18 14 17 mph 996.8mb 52f
5:12 11 14 mph 997mb 52f
5:06 10 14 mph 997mb 52f
5:00 14 15 mph 996.9mb 53f
4:54 13 15 mph 997mb 53f
4:48 14 17 mph 996.9mb 53f
4:42 14 17 mph 996.9mb 53f
4:36 14 17 mph 996.7mb 53f
4:30 14 16 mph 996.6mb 53f
4:24 14 17 mph 996.6mb 53f
4:18 11 14 mph 996.7mb 53f
4:12 10 13 mph 997mb 53f
4:06 10 13 mph 997.2mb 53f
4:00 8 9 mph 997.6mb 53f
3:54 5 9 mph 997.8mb 53f
3:48 6 10 mph 997.7mb 53f
3:42 9 11 mph 997.5mb 53f
3:36 9 13 mph 997.4mb 53f
3:30 11 14 mph 997.3mb 53f
3:24 10 14 mph 997.1mb 53f
3:18 11 14 mph 997.1mb 53f
3:12 11 15 mph 997mb 53f
3:06 14 17 mph 997.1mb 53f
3:00 13 15 mph 997mb 53f
2:54 14 17 mph 997.1mb 53f
2:48 17 22 mph 997mb 53f
2:42 17 22 mph 997mb 53f
2:36 18 22 mph 996.9mb 53f
2:30 14 18 mph 997.1mb 53f
2:24 14 20 mph 997.2mb 53f
2:18 16 18 mph 997.7mb 53f
2:12 14 16 mph 998.1mb 53f
2:06 14 17 mph 998.3mb 53f
2:00 13 16 mph 998.4mb 53f
1:54 10 13 mph 998.7mb 53f
1:48 8 10 mph 999mb 53f
1:42 9 13 mph 998.9mb 53f
1:36 10 13 mph 998.7mb 53f
1:30 13 16 mph 998.5mb 53f
1:24 10 13 mph 998.8mb 53f
1:18 10 14 mph 998.8mb 53f
1:12 8 9 mph 999mb 53f
1:06 9 13 mph 999mb 54f
1:00 9 11 mph 998.9mb 54f
12:54 7 9 mph 999.1mb 54f
12:48 5 7 mph 999.5mb 54f
12:42 6 8 mph 999.3mb 54f
12:36 8 10 mph 999.2mb 54f
12:30 7 8 mph 999.8mb 54f
12:24 5 6 mph 999.9mb 54f
12:18 1 8 mph 999.9mb 54f
12:12 13 15 mph 999.2mb 54f
12:06 9 17 mph 999.1mb 54f
12:00 18 26 mph 998.1mb 54f
jue 05/25 11:54 14 21 mph 1000mb 54f
11:48 17 22 mph 998.8mb 54f
11:42 15 18 mph 999mb 54f
11:36 18 22 mph 999mb 54f
11:30 15 18 mph 999.7mb 54f
11:24 14 16 mph 999.6mb 54f
11:18 15 20 mph 999.6mb 54f
11:12 15 17 mph 999.7mb 54f
11:06 13 17 mph 1000mb 54f
11:00 10 14 mph 1000.5mb 54f
10:54 11 15 mph 1000.6mb 54f
10:48 13 16 mph 1000.6mb 54f
10:42 11 14 mph 1000.8mb 54f
10:36 11 14 mph 1000.9mb 54f
10:30 15 17 mph 1000.7mb 54f
10:24 15 18 mph 1000.9mb 54f
10:18 15 20 mph 1001mb 54f
10:12 15 17 mph 1001.1mb 54f
10:06 14 17 mph 1001.2mb 54f
10:00 14 16 mph 1001.3mb 54f
9:54 13 16 mph 1001.8mb 54f
9:48 13 15 mph 1001.8mb 54f
9:42 11 15 mph 1002mb 54f
9:36 9 11 mph 1002.2mb 55f
9:30 9 13 mph 1002.1mb 55f
9:24 10 14 mph 1002.1mb 55f
9:18 9 11 mph 1002.2mb 55f
9:12 11 14 mph 1002.1mb 55f